Timeline UpdatesTrip UpdatesNews PostsPvt PostsTravel TipsAdmin PostsConv PostsFollowed PostsChat RequestsBlog PostsPNR Posts

Disclaimer
Search
 
 
Mon Sep 22, 2014 01:40:19 ISTHomeTrainsΣChainsAtlasPNRForumGalleryNewsFAQTripsMembersLoginFeedback
No Recent News for this Train
Other Trains in the News **new
Latest...
.
Tue Nov 19, 2013 (11:57PM)
⇐ Return Journey: Train# 56323

56324/Mangalore - Coimbatore Fast Passenger (UnReserved)

Time-Table HAS CHANGED.
Sep 03 (10:03AM)
Change Departure Station:
Change Arrival Station:
Post a Train Travel TipPost a Train Travel Tip **new
Post a Comment/Question/Picture/VideoPost a Comment/Question/Picture/Video
Pantry/Catering
???
RSA - Rake Sharing
RSA; with 56319/56320 Nagercoil Coimbatore Fast Passenger; Srivatsa Udupa
Rake/Coach Composition
LOCO=SLR=UR=UR=UR=UR=UR=UR=UR=UR=UR=UR=UR=UR=UR=UR=SLR
Loco
ED WDM 3D/3A or TNP/GOC WDM2
News    PNR    Forum    Time-Table    Availability    Fare Chart    Map    Arr/Dep History    Trips    Gallery    ΣChains    X/O    Timeline    
Travel Time: 9h 57m    40 halts    Distance: 315 km    Avg Speed: 31 km/hr
Type: Passenger
Zone: SR/Southern
Departs @ 09:38
Platform# ???
SMTWTFS
Trikkarippur/TKQ 
Arrives @ 19:35
Platform# ???
SMTWTFS
Coimbatore Main Junction/CBE 

40 halts. 57 intermediate Stations between Trikkarippur and Coimbatore Main Junction

Show ALL intermediate Stations  Show Old Time-Table

#CodeStation NameX/OArrivesAvgDepartsAvgHaltPFDay#KmSpeedElevZoneAddress
1MAQMangalore Central (4)  -08:00 07:40-31-91.92314mSRMangalore 575001, Karnataka
2ULLUllal (2)  08:19 07:57-08:20 07:58-1m--1-85.47726mSRSomeshwar, Karnataka
3MJSManjeshwar (3)  08:28 08:06-08:29 08:07-1m--1-75.15912mSRManjeshwar, Kerala
4UAAUppala (2)X  08:36 08:14-08:37 08:15-1m--1-68.25916mSRKasaragod District, Kerala
5KMQKumbala (2)X  08:47 08:25-08:48 08:26-1m--1-58.47323mSRKumbla, Kerala
6KGQKasaragod (3)X  08:58 08:36-09:00 08:38-2m--1-46.22518mSRTel: 04994 220800, Kerala
7KLADKalanad Halt  09:06 08:45-09:07 08:46-1m--1-43.3663mSRKasaragod, Kerala
8KQKKottikkulam (2)X  09:13 08:52-09:14 08:53-1m--1-36.74225mSRBekal, Kerala
9BFRBekal Fort (2)  09:21 09:00-09:22 09:01-1m--1-31.910511mSRPallikere, Kerala
10KZEKanhangad (3)X  09:29 09:06-09:31 09:08-2m--1-23.15115mSRKanhangad, Kerala
11NLENileshwar (2)  09:42 09:19-09:43 09:20-1m--1-13.84012mSRNileswaram, Kerala
12CHVCharvattur (3)  09:51 09:28-09:52 09:29-1m--1-8.66414mSRKasaragod district, Kerala
13TKQTrikkarippur»  10:00 09:37-10:01 09:38-1m--10.05313mSRKasargod district, Kerala
14PAYPayyanur (3)  10:08 09:45-10:09 09:47-1 2m--16.2210mSRKannur District, Kerala
15ELMEzhimala  10:17 09:55-10:18 09:56-1m--19.07615mSRKannur District, Kerala
16PAZPayangadi (2)X  10:25 10:03-10:26 10:04-1m2117.95012mSRKannur District, Kerala
17KPQKannapuram (2)  10:35 10:13-10:36 10:14-1m2125.41209mSRKannur District, Kerala
18PPNSPappinisseri (2)  10:39 10:17-10:40 10:18-1m--131.4198mSRKannur District, Kerala
19VAPMValapattanam (2)  10:45 10:23-10:46 10:24-1m--132.9258mSRKannur District, Kerala
20CQLChirakkal (2)X  10:51 10:29-10:52 10:30-1m--135.0827mSRKannur district, Kerala
21CANKannur Main (4)  11:20 11:05-11:25 11:10-5m3139.87314mSRKannur Tel: 0497 2705555, Kerala
22TLYThalassery (2)  11:45 11:27-11:46 11:29-1 2m--160.5699mSRKannur, Kerala
23MAHEMahe (2)X  11:57 11:37-11:58 11:39-1 2m--169.82816mSRMahe, Puducherry
24MUKEMukkali  12:03 11:47-12:04 11:48-1m--173.54418mSRChombala, Kerala
25NAUNadapuram Road  12:09 11:53-12:10 11:54-1m--177.210918mSRMadappallly, Kerala
26BDJVadakara (2)  12:15 11:57-12:16 11:59-1 2m1182.68311mSRCalicut / Station Ph No : 0496-2524254, Kerala
27PYOLPayyoli (2)  12:22 12:06-12:23 12:07-1m--192.35212mSRPayyoli, Kerala
28QLDKoyilandy (3)  12:38 12:21-12:39 12:22-1m--1104.63811mSRQuilandi, Kerala
29CLTKozhikode Main (4)X  13:15 13:00-13:20 13:05-5m31128.92211mSRCalicut Tel: 0495 2701234, Kerala
30KULKallayi Kozhikode South (2)X  13:25 13:10-13:26 13:11-1m--1130.7490mSRCalicut, Kerala
31FKFerok (2)  13:34 13:21-13:35 13:22-1m--1138.94019mSRFeroke, Kerala
32KNKadalundi (2)  13:40 13:29-13:41 13:30-1m--1143.6668mSRKozhikode district, Kerala
33VLIVallikunnu (2)  13:45 13:35-13:46 13:36-1m--1149.13713mSRVallikkunnu, Kerala
34PGIParappangadi (2)  13:54 13:44-13:55 13:45-1m--1154.05419mSRParappanangadi, Kerala
35TATanur (3)XO  14:04 13:54-14:05 13:55-1m--1162.11511mSRMalappuram, Kerala
36TIRTirur (3)X  14:18 14:28-14:20 14:30-2m31170.1579mSRTel: 0494 2422240, Kerala
37TUATirunnavaya (2)X  14:29 14:39-14:30 14:40-1m--1178.74810mSRThirunavaya, Kerala
38KTUKuttippuram (2)  14:39 14:48-14:40 14:50-1 2m--1185.26217mSRKuttippuram, Kerala
39PUMPallippuram  14:49 14:59-14:50 15:00-1m--1194.5615mSRPalakkad, Kerala
40PTBPattambi (2)XO  14:59 15:09-15:00 15:10-1m--1203.71321mSRPattambi, Kerala
41SRRShoranur Junction (7)X  16:00 16:05-16:15-15 10m51215.22926mSRShoranur ph.no 0466-2222913, Kerala
42MNURMannanur (2)  16:27-16:28-1m--1221.05333mSRVaniamkulam Mannanur Rd, Kerala
43OTPOttappalam (2)  16:37 16:36-16:38-1 2m--1228.13530mSROttapalam, Kerala
44PLPMPalappuram  16:44-16:45-1m--1231.64042mSRKayarampara-Meetna Rd, Kerala
45LDYLakkidi (2)X  16:51-16:52-1m--1235.65835mSRPalakkad, Kerala
46MNYMankara (2)  17:00-17:01-1m--1243.45665mSRPalakkad, Kerala
47PLLParli (2)  17:09-17:10-1m--1250.82263mSRPalakkad, Kerala
48PGTPalakkad Junction (4)XO  17:35-18:00-25m31259.84784mSRPalghat Tel: 0491 2555231, Kerala
49KJKDKanjikode (2)X  18:17-18:18-1m--1273.0460mSRPalakkad, Kerala
50WRAWalayarX  18:34-18:35-1m--1285.433213mSRPalakkad, Kerala
51ETMDEttimadai (2)  18:51-18:52-1m--1294.145313mSREttimadai, Tamil Nadu
52MDKIMadukaraiX  18:59-19:00-1m--1299.433344mSRCoimbatore, Tamil Nadu
53PTJPodanur Junction (4)  19:18-19:20-2m11309.223400mSRPodanur jtn ph.no. 0422-2410784, Tamil Nadu
54CBECoimbatore Main Junction (6)•  19:35----1315.1-416mSRCoimbatore 641001, Tamil Nadu
Scroll to Top
Scroll to Bottom